sensor_id;sensor_type;location;lat;lon;timestamp;P1;durP1;ratioP1;P2;durP2;ratioP2
36575;SDS011;45700;50.930;5.168;2022-12-16T00:03:37;5.83;;;5.33;;
36575;SDS011;45700;50.930;5.168;2022-12-16T00:07:39;8.33;;;6.77;;
36575;SDS011;45700;50.930;5.168;2022-12-16T00:11:40;12.53;;;5.20;;
36575;SDS011;45700;50.930;5.168;2022-12-16T00:15:41;10.07;;;5.60;;
36575;SDS011;45700;50.930;5.168;2022-12-16T00:19:42;3.53;;;2.90;;
36575;SDS011;45700;50.930;5.168;2022-12-16T00:23:43;12.87;;;7.07;;
36575;SDS011;45700;50.930;5.168;2022-12-16T00:27:44;60.83;;;20.00;;
36575;SDS011;45700;50.930;5.168;2022-12-16T00:31:45;44.30;;;18.95;;
36575;SDS011;45700;50.930;5.168;2022-12-16T00:35:47;49.97;;;19.42;;
36575;SDS011;45700;50.930;5.168;2022-12-16T00:39:48;53.78;;;18.73;;
36575;SDS011;45700;50.930;5.168;2022-12-16T00:43:49;43.70;;;17.52;;
36575;SDS011;45700;50.930;5.168;2022-12-16T00:47:50;53.25;;;18.73;;
36575;SDS011;45700;50.930;5.168;2022-12-16T00:51:51;57.20;;;18.27;;
36575;SDS011;45700;50.930;5.168;2022-12-16T00:56:00;59.92;;;18.75;;
36575;SDS011;45700;50.930;5.168;2022-12-16T01:00:01;63.40;;;18.95;;
36575;SDS011;45700;50.930;5.168;2022-12-16T01:04:04;52.92;;;17.95;;
36575;SDS011;45700;50.930;5.168;2022-12-16T01:08:05;48.15;;;18.13;;
36575;SDS011;45700;50.930;5.168;2022-12-16T01:12:06;48.78;;;17.52;;
36575;SDS011;45700;50.930;5.168;2022-12-16T01:16:07;51.00;;;16.50;;
36575;SDS011;45700;50.930;5.168;2022-12-16T01:20:08;50.72;;;15.50;;
36575;SDS011;45700;50.930;5.168;2022-12-16T01:24:09;57.70;;;16.90;;
36575;SDS011;45700;50.930;5.168;2022-12-16T01:28:11;58.90;;;19.85;;
36575;SDS011;45700;50.930;5.168;2022-12-16T01:32:12;42.55;;;16.58;;
36575;SDS011;45700;50.930;5.168;2022-12-16T01:36:13;45.22;;;15.45;;
36575;SDS011;45700;50.930;5.168;2022-12-16T01:40:18;49.95;;;17.15;;
36575;SDS011;45700;50.930;5.168;2022-12-16T01:44:21;42.95;;;16.63;;
36575;SDS011;45700;50.930;5.168;2022-12-16T01:52:39;42.90;;;16.70;;
36575;SDS011;45700;50.930;5.168;2022-12-16T01:56:44;46.25;;;16.20;;
36575;SDS011;45700;50.930;5.168;2022-12-16T02:00:47;44.13;;;16.00;;
36575;SDS011;45700;50.930;5.168;2022-12-16T02:04:48;53.97;;;17.15;;
36575;SDS011;45700;50.930;5.168;2022-12-16T02:09:08;47.83;;;17.30;;
36575;SDS011;45700;50.930;5.168;2022-12-16T02:21:37;44.00;;;14.80;;
36575;SDS011;45700;50.930;5.168;2022-12-16T02:38:26;4.28;;;2.83;;
36575;SDS011;45700;50.930;5.168;2022-12-16T02:42:30;3.83;;;2.20;;
36575;SDS011;45700;50.930;5.168;2022-12-16T02:46:37;2.72;;;2.00;;
36575;SDS011;45700;50.930;5.168;2022-12-16T02:50:43;1.65;;;1.55;;
36575;SDS011;45700;50.930;5.168;2022-12-16T02:54:45;54.67;;;8.75;;
36575;SDS011;45700;50.930;5.168;2022-12-16T03:06:52;1.40;;;1.30;;
36575;SDS011;45700;50.930;5.168;2022-12-16T03:10:58;51.67;;;17.30;;
36575;SDS011;45700;50.930;5.168;2022-12-16T03:15:00;43.70;;;15.82;;
36575;SDS011;45700;50.930;5.168;2022-12-16T03:19:02;44.28;;;15.30;;
36575;SDS011;45700;50.930;5.168;2022-12-16T03:23:05;38.10;;;15.00;;
36575;SDS011;45700;50.930;5.168;2022-12-16T03:31:20;10.82;;;8.52;;
36575;SDS011;45700;50.930;5.168;2022-12-16T03:35:26;2.92;;;2.30;;
36575;SDS011;45700;50.930;5.168;2022-12-16T03:39:28;0.73;;;0.73;;
36575;SDS011;45700;50.930;5.168;2022-12-16T03:43:31;3.20;;;2.55;;
36575;SDS011;45700;50.930;5.168;2022-12-16T03:47:32;1.25;;;1.25;;
36575;SDS011;45700;50.930;5.168;2022-12-16T03:51:33;17.83;;;4.05;;
36575;SDS011;45700;50.930;5.168;2022-12-16T03:55:34;1.00;;;1.00;;
36575;SDS011;45700;50.930;5.168;2022-12-16T03:59:35;1.42;;;1.38;;
36575;SDS011;45700;50.930;5.168;2022-12-16T04:03:36;4.22;;;3.83;;
36575;SDS011;45700;50.930;5.168;2022-12-16T04:07:37;1.85;;;1.60;;
36575;SDS011;45700;50.930;5.168;2022-12-16T04:11:38;3.30;;;2.65;;
36575;SDS011;45700;50.930;5.168;2022-12-16T04:20:17;44.50;;;16.60;;
36575;SDS011;45700;50.930;5.168;2022-12-16T04:24:37;49.17;;;16.60;;
36575;SDS011;45700;50.930;5.168;2022-12-16T04:28:38;44.30;;;16.85;;
36575;SDS011;45700;50.930;5.168;2022-12-16T04:32:39;2.85;;;2.35;;
36575;SDS011;45700;50.930;5.168;2022-12-16T04:37:00;1.48;;;1.45;;
36575;SDS011;45700;50.930;5.168;2022-12-16T04:41:20;1.45;;;0.80;;
36575;SDS011;45700;50.930;5.168;2022-12-16T04:50:00;2.50;;;1.70;;
36575;SDS011;45700;50.930;5.168;2022-12-16T04:54:19;3.45;;;2.20;;
36575;SDS011;45700;50.930;5.168;2022-12-16T04:58:39;3.10;;;2.85;;
36575;SDS011;45700;50.930;5.168;2022-12-16T05:02:58;1.45;;;1.35;;
36575;SDS011;45700;50.930;5.168;2022-12-16T05:11:37;0.57;;;0.57;;
36575;SDS011;45700;50.930;5.168;2022-12-16T05:15:57;47.13;;;16.88;;
36575;SDS011;45700;50.930;5.168;2022-12-16T05:20:17;43.63;;;15.07;;
36575;SDS011;45700;50.930;5.168;2022-12-16T05:24:36;53.22;;;16.40;;
36575;SDS011;45700;50.930;5.168;2022-12-16T05:28:56;43.13;;;15.25;;
36575;SDS011;45700;50.930;5.168;2022-12-16T05:37:52;0.52;;;0.50;;
36575;SDS011;45700;50.930;5.168;2022-12-16T05:42:12;1.63;;;1.52;;
36575;SDS011;45700;50.930;5.168;2022-12-16T05:46:31;0.15;;;0.15;;
36575;SDS011;45700;50.930;5.168;2022-12-16T05:50:51;1.67;;;1.58;;
36575;SDS011;45700;50.930;5.168;2022-12-16T05:55:10;2.55;;;2.17;;
36575;SDS011;45700;50.930;5.168;2022-12-16T05:59:30;2.90;;;2.30;;
36575;SDS011;45700;50.930;5.168;2022-12-16T06:03:50;1.00;;;1.00;;
36575;SDS011;45700;50.930;5.168;2022-12-16T06:08:09;0.80;;;0.80;;
36575;SDS011;45700;50.930;5.168;2022-12-16T06:12:29;4.82;;;2.17;;
36575;SDS011;45700;50.930;5.168;2022-12-16T06:16:49;51.05;;;17.00;;
36575;SDS011;45700;50.930;5.168;2022-12-16T06:21:08;41.40;;;14.90;;
36575;SDS011;45700;50.930;5.168;2022-12-16T06:25:28;67.97;;;21.02;;
36575;SDS011;45700;50.930;5.168;2022-12-16T06:29:52;42.40;;;16.60;;
36575;SDS011;45700;50.930;5.168;2022-12-16T06:34:12;13.55;;;4.07;;
36575;SDS011;45700;50.930;5.168;2022-12-16T06:42:51;4.37;;;4.03;;
36575;SDS011;45700;50.930;5.168;2022-12-16T06:47:11;13.63;;;6.57;;
36575;SDS011;45700;50.930;5.168;2022-12-16T06:51:31;15.60;;;8.05;;
36575;SDS011;45700;50.930;5.168;2022-12-16T06:55:50;21.80;;;8.48;;
36575;SDS011;45700;50.930;5.168;2022-12-16T07:00:10;11.95;;;6.90;;
36575;SDS011;45700;50.930;5.168;2022-12-16T07:04:30;15.10;;;7.40;;
36575;SDS011;45700;50.930;5.168;2022-12-16T07:08:49;14.30;;;7.30;;
36575;SDS011;45700;50.930;5.168;2022-12-16T07:17:29;45.08;;;15.90;;
36575;SDS011;45700;50.930;5.168;2022-12-16T07:21:48;44.13;;;16.05;;
36575;SDS011;45700;50.930;5.168;2022-12-16T07:30:27;43.70;;;13.77;;
36575;SDS011;45700;50.930;5.168;2022-12-16T07:34:47;51.78;;;19.80;;
36575;SDS011;45700;50.930;5.168;2022-12-16T07:39:06;34.20;;;14.85;;
36575;SDS011;45700;50.930;5.168;2022-12-16T07:47:49;28.90;;;11.30;;
36575;SDS011;45700;50.930;5.168;2022-12-16T07:52:09;20.02;;;8.23;;
36575;SDS011;45700;50.930;5.168;2022-12-16T07:56:29;16.05;;;9.15;;
36575;SDS011;45700;50.930;5.168;2022-12-16T08:00:48;27.10;;;10.52;;
36575;SDS011;45700;50.930;5.168;2022-12-16T08:09:27;38.47;;;11.73;;
36575;SDS011;45700;50.930;5.168;2022-12-16T08:13:47;29.60;;;12.82;;
36575;SDS011;45700;50.930;5.168;2022-12-16T08:18:07;80.13;;;21.98;;
36575;SDS011;45700;50.930;5.168;2022-12-16T08:22:26;53.80;;;19.50;;
36575;SDS011;45700;50.930;5.168;2022-12-16T08:31:05;46.75;;;14.38;;
36575;SDS011;45700;50.930;5.168;2022-12-16T08:35:25;62.88;;;19.67;;
36575;SDS011;45700;50.930;5.168;2022-12-16T08:44:07;17.40;;;11.87;;
36575;SDS011;45700;50.930;5.168;2022-12-16T08:48:27;22.02;;;12.35;;
36575;SDS011;45700;50.930;5.168;2022-12-16T08:57:06;26.75;;;13.55;;
36575;SDS011;45700;50.930;5.168;2022-12-16T09:01:26;16.85;;;8.43;;
36575;SDS011;45700;50.930;5.168;2022-12-16T09:10:25;33.80;;;13.63;;
36575;SDS011;45700;50.930;5.168;2022-12-16T09:14:44;30.73;;;10.20;;
36575;SDS011;45700;50.930;5.168;2022-12-16T09:19:04;78.63;;;22.70;;
36575;SDS011;45700;50.930;5.168;2022-12-16T09:23:24;84.82;;;25.90;;
36575;SDS011;45700;50.930;5.168;2022-12-16T09:32:03;57.93;;;17.67;;
36575;SDS011;45700;50.930;5.168;2022-12-16T09:40:42;27.00;;;9.67;;
36575;SDS011;45700;50.930;5.168;2022-12-16T09:53:51;38.45;;;13.45;;
36575;SDS011;45700;50.930;5.168;2022-12-16T09:58:24;16.88;;;9.98;;
36575;SDS011;45700;50.930;5.168;2022-12-16T10:02:46;31.83;;;12.57;;
36575;SDS011;45700;50.930;5.168;2022-12-16T10:07:07;22.38;;;10.90;;
36575;SDS011;45700;50.930;5.168;2022-12-16T10:11:55;27.27;;;14.32;;
36575;SDS011;45700;50.930;5.168;2022-12-16T10:16:14;69.03;;;21.83;;
36575;SDS011;45700;50.930;5.168;2022-12-16T10:29:18;26.37;;;12.67;;
36575;SDS011;45700;50.930;5.168;2022-12-16T10:33:38;32.78;;;11.98;;
36575;SDS011;45700;50.930;5.168;2022-12-16T10:37:59;18.33;;;8.27;;
36575;SDS011;45700;50.930;5.168;2022-12-16T10:46:38;30.27;;;13.18;;
36575;SDS011;45700;50.930;5.168;2022-12-16T10:59:40;31.90;;;6.25;;
36575;SDS011;45700;50.930;5.168;2022-12-16T11:12:45;24.40;;;9.75;;
36575;SDS011;45700;50.930;5.168;2022-12-16T11:21:26;12.18;;;7.50;;
36575;SDS011;45700;50.930;5.168;2022-12-16T11:25:45;20.10;;;6.30;;
36575;SDS011;45700;50.930;5.168;2022-12-16T11:34:25;13.53;;;8.17;;
36575;SDS011;45700;50.930;5.168;2022-12-16T11:38:45;9.93;;;6.45;;
36575;SDS011;45700;50.930;5.168;2022-12-16T11:43:05;9.27;;;6.25;;
36575;SDS011;45700;50.930;5.168;2022-12-16T11:56:04;10.50;;;7.00;;
36575;SDS011;45700;50.930;5.168;2022-12-16T12:00:24;25.20;;;7.93;;
36575;SDS011;45700;50.930;5.168;2022-12-16T12:04:46;28.80;;;10.30;;
36575;SDS011;45700;50.930;5.168;2022-12-16T12:09:19;23.42;;;5.40;;
36575;SDS011;45700;50.930;5.168;2022-12-16T12:22:44;14.60;;;7.03;;
36575;SDS011;45700;50.930;5.168;2022-12-16T12:27:20;15.38;;;6.35;;
36575;SDS011;45700;50.930;5.168;2022-12-16T12:49:24;23.92;;;10.55;;
36575;SDS011;45700;50.930;5.168;2022-12-16T12:53:54;11.50;;;6.18;;
36575;SDS011;45700;50.930;5.168;2022-12-16T12:58:18;15.85;;;6.72;;
36575;SDS011;45700;50.930;5.168;2022-12-16T13:02:44;8.30;;;5.60;;
36575;SDS011;45700;50.930;5.168;2022-12-16T13:07:05;11.18;;;5.15;;
36575;SDS011;45700;50.930;5.168;2022-12-16T13:11:25;12.15;;;7.57;;
36575;SDS011;45700;50.930;5.168;2022-12-16T13:15:45;13.25;;;9.40;;
36575;SDS011;45700;50.930;5.168;2022-12-16T13:24:33;11.35;;;5.80;;
36575;SDS011;45700;50.930;5.168;2022-12-16T13:33:34;13.32;;;6.18;;
36575;SDS011;45700;50.930;5.168;2022-12-16T13:37:54;4.03;;;3.65;;
36575;SDS011;45700;50.930;5.168;2022-12-16T13:42:46;13.63;;;6.43;;
36575;SDS011;45700;50.930;5.168;2022-12-16T13:47:15;5.65;;;4.53;;
36575;SDS011;45700;50.930;5.168;2022-12-16T13:51:57;9.75;;;5.78;;
36575;SDS011;45700;50.930;5.168;2022-12-16T13:56:40;7.28;;;6.53;;
36575;SDS011;45700;50.930;5.168;2022-12-16T14:01:00;14.20;;;5.10;;
36575;SDS011;45700;50.930;5.168;2022-12-16T14:05:42;7.15;;;5.45;;
36575;SDS011;45700;50.930;5.168;2022-12-16T14:10:02;11.88;;;5.88;;
36575;SDS011;45700;50.930;5.168;2022-12-16T14:14:24;7.20;;;4.43;;
36575;SDS011;45700;50.930;5.168;2022-12-16T14:18:53;5.78;;;5.28;;
36575;SDS011;45700;50.930;5.168;2022-12-16T14:31:56;11.68;;;7.28;;
36575;SDS011;45700;50.930;5.168;2022-12-16T14:40:35;13.27;;;6.97;;
36575;SDS011;45700;50.930;5.168;2022-12-16T14:49:27;18.40;;;5.00;;
36575;SDS011;45700;50.930;5.168;2022-12-16T14:53:48;14.68;;;6.55;;
36575;SDS011;45700;50.930;5.168;2022-12-16T14:58:08;9.23;;;5.18;;
36575;SDS011;45700;50.930;5.168;2022-12-16T15:02:29;9.13;;;5.40;;
36575;SDS011;45700;50.930;5.168;2022-12-16T15:06:51;4.50;;;3.30;;
36575;SDS011;45700;50.930;5.168;2022-12-16T15:11:11;9.75;;;6.47;;
36575;SDS011;45700;50.930;5.168;2022-12-16T15:15:42;5.28;;;4.10;;
36575;SDS011;45700;50.930;5.168;2022-12-16T15:20:02;5.38;;;4.78;;
36575;SDS011;45700;50.930;5.168;2022-12-16T15:24:22;8.27;;;5.07;;
36575;SDS011;45700;50.930;5.168;2022-12-16T15:28:42;19.92;;;7.75;;
36575;SDS011;45700;50.930;5.168;2022-12-16T15:33:04;10.05;;;6.63;;
36575;SDS011;45700;50.930;5.168;2022-12-16T15:37:27;19.75;;;7.30;;
36575;SDS011;45700;50.930;5.168;2022-12-16T15:41:48;7.70;;;5.25;;
36575;SDS011;45700;50.930;5.168;2022-12-16T15:50:27;13.57;;;6.60;;
36575;SDS011;45700;50.930;5.168;2022-12-16T15:54:48;14.38;;;6.78;;
36575;SDS011;45700;50.930;5.168;2022-12-16T15:59:12;14.70;;;7.63;;
36575;SDS011;45700;50.930;5.168;2022-12-16T16:03:32;15.50;;;6.72;;
36575;SDS011;45700;50.930;5.168;2022-12-16T16:07:52;7.65;;;6.18;;
36575;SDS011;45700;50.930;5.168;2022-12-16T16:16:31;28.30;;;8.13;;
36575;SDS011;45700;50.930;5.168;2022-12-16T16:25:10;24.85;;;10.05;;
36575;SDS011;45700;50.930;5.168;2022-12-16T16:33:50;16.67;;;6.20;;
36575;SDS011;45700;50.930;5.168;2022-12-16T16:38:10;18.05;;;6.72;;
36575;SDS011;45700;50.930;5.168;2022-12-16T16:42:29;10.50;;;6.03;;
36575;SDS011;45700;50.930;5.168;2022-12-16T16:46:49;20.00;;;8.50;;
36575;SDS011;45700;50.930;5.168;2022-12-16T16:55:28;22.65;;;9.20;;
36575;SDS011;45700;50.930;5.168;2022-12-16T16:59:48;10.30;;;5.60;;
36575;SDS011;45700;50.930;5.168;2022-12-16T17:04:07;17.70;;;7.30;;
36575;SDS011;45700;50.930;5.168;2022-12-16T17:08:27;11.57;;;6.47;;
36575;SDS011;45700;50.930;5.168;2022-12-16T17:17:07;33.63;;;11.47;;
36575;SDS011;45700;50.930;5.168;2022-12-16T17:21:27;9.65;;;7.28;;
36575;SDS011;45700;50.930;5.168;2022-12-16T17:25:47;14.07;;;8.30;;
36575;SDS011;45700;50.930;5.168;2022-12-16T17:34:26;15.40;;;9.63;;
36575;SDS011;45700;50.930;5.168;2022-12-16T17:43:05;25.02;;;12.70;;
36575;SDS011;45700;50.930;5.168;2022-12-16T17:47:25;16.08;;;8.48;;
36575;SDS011;45700;50.930;5.168;2022-12-16T17:51:45;14.77;;;7.75;;
36575;SDS011;45700;50.930;5.168;2022-12-16T18:00:24;28.70;;;11.80;;
36575;SDS011;45700;50.930;5.168;2022-12-16T18:09:04;29.60;;;12.88;;
36575;SDS011;45700;50.930;5.168;2022-12-16T18:13:23;32.78;;;12.30;;
36575;SDS011;45700;50.930;5.168;2022-12-16T18:17:43;4.32;;;3.53;;
36575;SDS011;45700;50.930;5.168;2022-12-16T18:22:06;8.77;;;5.35;;
36575;SDS011;45700;50.930;5.168;2022-12-16T18:30:45;4.82;;;2.92;;
36575;SDS011;45700;50.930;5.168;2022-12-16T18:35:05;2.53;;;1.70;;
36575;SDS011;45700;50.930;5.168;2022-12-16T18:43:44;3.07;;;2.63;;
36575;SDS011;45700;50.930;5.168;2022-12-16T18:52:23;12.57;;;5.43;;
36575;SDS011;45700;50.930;5.168;2022-12-16T18:56:43;0.95;;;0.90;;
36575;SDS011;45700;50.930;5.168;2022-12-16T19:01:13;4.22;;;3.15;;
36575;SDS011;45700;50.930;5.168;2022-12-16T19:05:33;1.42;;;1.42;;
36575;SDS011;45700;50.930;5.168;2022-12-16T19:14:12;2.85;;;2.65;;
36575;SDS011;45700;50.930;5.168;2022-12-16T19:18:32;2.90;;;2.70;;
36575;SDS011;45700;50.930;5.168;2022-12-16T19:27:11;4.63;;;1.30;;
36575;SDS011;45700;50.930;5.168;2022-12-16T19:31:31;3.13;;;2.90;;
36575;SDS011;45700;50.930;5.168;2022-12-16T19:40:10;19.33;;;4.10;;
36575;SDS011;45700;50.930;5.168;2022-12-16T19:48:49;2.05;;;1.95;;
36575;SDS011;45700;50.930;5.168;2022-12-16T19:53:09;11.30;;;3.55;;
36575;SDS011;45700;50.930;5.168;2022-12-16T19:57:29;6.57;;;5.13;;
36575;SDS011;45700;50.930;5.168;2022-12-16T20:01:49;3.10;;;2.05;;
36575;SDS011;45700;50.930;5.168;2022-12-16T20:06:08;4.60;;;3.28;;
36575;SDS011;45700;50.930;5.168;2022-12-16T20:10:28;3.35;;;2.55;;
36575;SDS011;45700;50.930;5.168;2022-12-16T20:14:48;8.82;;;4.13;;
36575;SDS011;45700;50.930;5.168;2022-12-16T20:23:27;5.97;;;2.95;;
36575;SDS011;45700;50.930;5.168;2022-12-16T20:27:47;9.20;;;5.07;;
36575;SDS011;45700;50.930;5.168;2022-12-16T20:32:06;3.53;;;3.22;;
36575;SDS011;45700;50.930;5.168;2022-12-16T20:36:26;1.35;;;1.27;;
36575;SDS011;45700;50.930;5.168;2022-12-16T20:45:05;7.30;;;4.78;;
36575;SDS011;45700;50.930;5.168;2022-12-16T20:49:42;11.95;;;7.38;;
36575;SDS011;45700;50.930;5.168;2022-12-16T20:54:02;1.60;;;1.13;;
36575;SDS011;45700;50.930;5.168;2022-12-16T20:58:21;1.45;;;1.40;;
36575;SDS011;45700;50.930;5.168;2022-12-16T21:02:41;1.27;;;1.20;;
36575;SDS011;45700;50.930;5.168;2022-12-16T21:07:00;1.40;;;1.40;;
36575;SDS011;45700;50.930;5.168;2022-12-16T21:11:20;3.22;;;2.92;;
36575;SDS011;45700;50.930;5.168;2022-12-16T21:19:59;1.13;;;1.13;;
36575;SDS011;45700;50.930;5.168;2022-12-16T21:24:19;0.30;;;0.30;;
36575;SDS011;45700;50.930;5.168;2022-12-16T21:28:38;3.03;;;2.45;;
36575;SDS011;45700;50.930;5.168;2022-12-16T21:32:58;1.88;;;1.55;;
36575;SDS011;45700;50.930;5.168;2022-12-16T21:37:18;3.05;;;2.72;;
36575;SDS011;45700;50.930;5.168;2022-12-16T21:41:37;4.07;;;1.73;;
36575;SDS011;45700;50.930;5.168;2022-12-16T21:45:57;1.77;;;1.67;;
36575;SDS011;45700;50.930;5.168;2022-12-16T21:54:36;2.47;;;2.28;;
36575;SDS011;45700;50.930;5.168;2022-12-16T21:58:56;0.43;;;0.43;;
36575;SDS011;45700;50.930;5.168;2022-12-16T22:03:16;0.80;;;0.80;;
36575;SDS011;45700;50.930;5.168;2022-12-16T22:07:35;8.27;;;6.28;;
36575;SDS011;45700;50.930;5.168;2022-12-16T22:11:55;1.25;;;1.25;;
36575;SDS011;45700;50.930;5.168;2022-12-16T22:16:14;1.52;;;1.42;;
36575;SDS011;45700;50.930;5.168;2022-12-16T22:20:34;4.07;;;2.05;;
36575;SDS011;45700;50.930;5.168;2022-12-16T22:24:54;6.22;;;2.65;;
36575;SDS011;45700;50.930;5.168;2022-12-16T22:29:13;4.40;;;3.15;;
36575;SDS011;45700;50.930;5.168;2022-12-16T22:37:52;7.18;;;3.92;;
36575;SDS011;45700;50.930;5.168;2022-12-16T22:42:12;1.05;;;1.05;;
36575;SDS011;45700;50.930;5.168;2022-12-16T22:46:31;3.42;;;3.22;;
36575;SDS011;45700;50.930;5.168;2022-12-16T22:50:51;3.97;;;3.08;;
36575;SDS011;45700;50.930;5.168;2022-12-16T22:55:11;1.05;;;1.05;;
36575;SDS011;45700;50.930;5.168;2022-12-16T22:59:30;0.40;;;0.40;;
36575;SDS011;45700;50.930;5.168;2022-12-16T23:03:50;1.83;;;1.73;;
36575;SDS011;45700;50.930;5.168;2022-12-16T23:08:29;4.63;;;2.37;;
36575;SDS011;45700;50.930;5.168;2022-12-16T23:12:49;0.73;;;0.68;;
36575;SDS011;45700;50.930;5.168;2022-12-16T23:17:09;0.63;;;0.63;;
36575;SDS011;45700;50.930;5.168;2022-12-16T23:21:29;5.07;;;4.53;;
36575;SDS011;45700;50.930;5.168;2022-12-16T23:30:08;13.77;;;1.83;;
36575;SDS011;45700;50.930;5.168;2022-12-16T23:34:28;1.63;;;1.30;;
36575;SDS011;45700;50.930;5.168;2022-12-16T23:38:48;4.28;;;3.83;;
36575;SDS011;45700;50.930;5.168;2022-12-16T23:43:07;1.88;;;1.75;;
36575;SDS011;45700;50.930;5.168;2022-12-16T23:47:27;4.32;;;3.95;;
36575;SDS011;45700;50.930;5.168;2022-12-16T23:51:46;4.85;;;1.10;;
36575;SDS011;45700;50.930;5.168;2022-12-16T23:56:06;4.38;;;4.05;;
